sensor_id;sensor_type;location;lat;lon;timestamp;P1;durP1;ratioP1;P2;durP2;ratioP2
74677;SDS011;67324;56.326;43.982;2023-02-17T00:01:50;6.63;;;4.90;;
74677;SDS011;67324;56.326;43.982;2023-02-17T00:04:16;6.25;;;4.80;;
74677;SDS011;67324;56.326;43.982;2023-02-17T00:06:41;6.88;;;4.85;;
74677;SDS011;67324;56.326;43.982;2023-02-17T00:09:07;7.63;;;5.18;;
74677;SDS011;67324;56.326;43.982;2023-02-17T00:11:52;7.53;;;5.00;;
74677;SDS011;67324;56.326;43.982;2023-02-17T00:14:18;6.80;;;4.68;;
74677;SDS011;67324;56.326;43.982;2023-02-17T00:16:44;6.70;;;4.75;;
74677;SDS011;67324;56.326;43.982;2023-02-17T00:19:10;6.10;;;4.63;;
74677;SDS011;67324;56.326;43.982;2023-02-17T00:21:49;6.38;;;4.85;;
74677;SDS011;67324;56.326;43.982;2023-02-17T00:24:20;6.63;;;4.82;;
74677;SDS011;67324;56.326;43.982;2023-02-17T00:26:47;6.93;;;4.90;;
74677;SDS011;67324;56.326;43.982;2023-02-17T00:29:13;6.97;;;5.00;;
74677;SDS011;67324;56.326;43.982;2023-02-17T00:31:39;7.25;;;5.00;;
74677;SDS011;67324;56.326;43.982;2023-02-17T00:34:05;8.52;;;5.25;;
74677;SDS011;67324;56.326;43.982;2023-02-17T00:36:31;6.70;;;4.60;;
74677;SDS011;67324;56.326;43.982;2023-02-17T00:38:57;6.28;;;4.80;;
74677;SDS011;67324;56.326;43.982;2023-02-17T00:41:26;7.40;;;5.00;;
74677;SDS011;67324;56.326;43.982;2023-02-17T00:43:56;6.60;;;5.03;;
74677;SDS011;67324;56.326;43.982;2023-02-17T00:46:22;6.00;;;4.80;;
74677;SDS011;67324;56.326;43.982;2023-02-17T00:48:51;6.97;;;5.03;;
74677;SDS011;67324;56.326;43.982;2023-02-17T00:51:17;6.35;;;4.72;;
74677;SDS011;67324;56.326;43.982;2023-02-17T00:53:44;6.38;;;4.70;;
74677;SDS011;67324;56.326;43.982;2023-02-17T00:56:11;6.57;;;4.97;;
74677;SDS011;67324;56.326;43.982;2023-02-17T00:58:37;6.50;;;4.82;;
74677;SDS011;67324;56.326;43.982;2023-02-17T01:01:03;6.45;;;5.13;;
74677;SDS011;67324;56.326;43.982;2023-02-17T01:03:29;6.70;;;4.72;;
74677;SDS011;67324;56.326;43.982;2023-02-17T01:05:56;6.55;;;4.78;;
74677;SDS011;67324;56.326;43.982;2023-02-17T01:08:23;7.22;;;4.90;;
74677;SDS011;67324;56.326;43.982;2023-02-17T01:10:50;6.22;;;4.93;;
74677;SDS011;67324;56.326;43.982;2023-02-17T01:13:17;6.82;;;5.00;;
74677;SDS011;67324;56.326;43.982;2023-02-17T01:15:46;6.10;;;5.05;;
74677;SDS011;67324;56.326;43.982;2023-02-17T01:18:14;6.57;;;5.13;;
74677;SDS011;67324;56.326;43.982;2023-02-17T01:20:41;7.47;;;5.38;;
74677;SDS011;67324;56.326;43.982;2023-02-17T01:23:07;6.30;;;4.70;;
74677;SDS011;67324;56.326;43.982;2023-02-17T01:25:39;7.20;;;4.88;;
74677;SDS011;67324;56.326;43.982;2023-02-17T01:28:07;6.80;;;5.00;;
74677;SDS011;67324;56.326;43.982;2023-02-17T01:30:33;6.57;;;5.03;;
74677;SDS011;67324;56.326;43.982;2023-02-17T01:32:59;6.97;;;5.10;;
74677;SDS011;67324;56.326;43.982;2023-02-17T01:35:25;7.07;;;5.00;;
74677;SDS011;67324;56.326;43.982;2023-02-17T01:37:52;7.80;;;5.22;;
74677;SDS011;67324;56.326;43.982;2023-02-17T01:40:18;6.80;;;5.03;;
74677;SDS011;67324;56.326;43.982;2023-02-17T01:42:43;6.70;;;5.10;;
74677;SDS011;67324;56.326;43.982;2023-02-17T01:48:02;7.25;;;5.45;;
74677;SDS011;67324;56.326;43.982;2023-02-17T01:50:34;7.00;;;4.97;;
74677;SDS011;67324;56.326;43.982;2023-02-17T01:53:05;7.30;;;5.07;;
74677;SDS011;67324;56.326;43.982;2023-02-17T01:55:33;5.93;;;4.82;;
74677;SDS011;67324;56.326;43.982;2023-02-17T01:58:03;6.43;;;4.88;;
74677;SDS011;67324;56.326;43.982;2023-02-17T02:00:33;6.80;;;5.47;;
74677;SDS011;67324;56.326;43.982;2023-02-17T02:03:00;6.85;;;4.90;;
74677;SDS011;67324;56.326;43.982;2023-02-17T02:05:47;7.20;;;4.88;;
74677;SDS011;67324;56.326;43.982;2023-02-17T02:08:13;6.38;;;4.80;;
74677;SDS011;67324;56.326;43.982;2023-02-17T02:10:40;7.20;;;5.00;;
74677;SDS011;67324;56.326;43.982;2023-02-17T02:13:06;6.57;;;4.95;;
74677;SDS011;67324;56.326;43.982;2023-02-17T02:15:37;5.95;;;4.57;;
74677;SDS011;67324;56.326;43.982;2023-02-17T02:21:14;7.32;;;5.18;;
74677;SDS011;67324;56.326;43.982;2023-02-17T02:32:58;6.65;;;4.80;;
74677;SDS011;67324;56.326;43.982;2023-02-17T02:35:51;8.65;;;5.25;;
74677;SDS011;67324;56.326;43.982;2023-02-17T02:38:42;7.13;;;5.20;;
74677;SDS011;67324;56.326;43.982;2023-02-17T02:41:20;7.90;;;5.40;;
74677;SDS011;67324;56.326;43.982;2023-02-17T02:43:50;6.95;;;5.30;;
74677;SDS011;67324;56.326;43.982;2023-02-17T02:46:16;6.68;;;4.68;;
74677;SDS011;67324;56.326;43.982;2023-02-17T02:48:42;5.90;;;4.90;;
74677;SDS011;67324;56.326;43.982;2023-02-17T02:53:48;6.95;;;4.97;;
74677;SDS011;67324;56.326;43.982;2023-02-17T03:07:58;6.53;;;4.90;;
74677;SDS011;67324;56.326;43.982;2023-02-17T03:10:28;5.68;;;4.70;;
74677;SDS011;67324;56.326;43.982;2023-02-17T03:12:54;7.05;;;4.65;;
74677;SDS011;67324;56.326;43.982;2023-02-17T03:15:22;7.65;;;5.03;;
74677;SDS011;67324;56.326;43.982;2023-02-17T03:17:57;8.13;;;5.47;;
74677;SDS011;67324;56.326;43.982;2023-02-17T03:20:24;6.95;;;5.35;;
74677;SDS011;67324;56.326;43.982;2023-02-17T03:22:53;7.55;;;5.38;;
74677;SDS011;67324;56.326;43.982;2023-02-17T03:25:37;7.40;;;5.00;;
74677;SDS011;67324;56.326;43.982;2023-02-17T03:28:03;6.53;;;5.20;;
74677;SDS011;67324;56.326;43.982;2023-02-17T03:30:29;7.35;;;5.40;;
74677;SDS011;67324;56.326;43.982;2023-02-17T03:32:55;6.43;;;5.05;;
74677;SDS011;67324;56.326;43.982;2023-02-17T03:35:21;6.75;;;5.20;;
74677;SDS011;67324;56.326;43.982;2023-02-17T03:37:47;5.95;;;5.00;;
74677;SDS011;67324;56.326;43.982;2023-02-17T03:40:13;7.72;;;5.43;;
74677;SDS011;67324;56.326;43.982;2023-02-17T03:42:39;6.82;;;4.70;;
74677;SDS011;67324;56.326;43.982;2023-02-17T03:45:05;6.93;;;5.40;;
74677;SDS011;67324;56.326;43.982;2023-02-17T03:47:31;7.07;;;5.40;;
74677;SDS011;67324;56.326;43.982;2023-02-17T03:49:56;7.03;;;5.22;;
74677;SDS011;67324;56.326;43.982;2023-02-17T03:52:22;7.45;;;5.05;;
74677;SDS011;67324;56.326;43.982;2023-02-17T03:54:48;6.95;;;5.30;;
74677;SDS011;67324;56.326;43.982;2023-02-17T03:57:14;7.22;;;5.28;;
74677;SDS011;67324;56.326;43.982;2023-02-17T03:59:39;7.50;;;5.25;;
74677;SDS011;67324;56.326;43.982;2023-02-17T04:02:05;7.43;;;5.40;;
74677;SDS011;67324;56.326;43.982;2023-02-17T04:04:31;6.65;;;5.05;;
74677;SDS011;67324;56.326;43.982;2023-02-17T04:06:57;7.80;;;5.68;;
74677;SDS011;67324;56.326;43.982;2023-02-17T04:09:23;7.30;;;5.15;;
74677;SDS011;67324;56.326;43.982;2023-02-17T04:11:48;6.95;;;5.30;;
74677;SDS011;67324;56.326;43.982;2023-02-17T04:14:14;6.78;;;4.97;;
74677;SDS011;67324;56.326;43.982;2023-02-17T04:16:59;7.05;;;5.45;;
74677;SDS011;67324;56.326;43.982;2023-02-17T04:19:24;8.50;;;5.72;;
74677;SDS011;67324;56.326;43.982;2023-02-17T04:21:50;8.02;;;6.00;;
74677;SDS011;67324;56.326;43.982;2023-02-17T04:24:16;7.72;;;6.07;;
74677;SDS011;67324;56.326;43.982;2023-02-17T04:26:42;8.68;;;5.65;;
74677;SDS011;67324;56.326;43.982;2023-02-17T04:29:08;7.53;;;5.80;;
74677;SDS011;67324;56.326;43.982;2023-02-17T04:31:34;7.43;;;5.45;;
74677;SDS011;67324;56.326;43.982;2023-02-17T04:33:59;7.28;;;5.13;;
74677;SDS011;67324;56.326;43.982;2023-02-17T04:36:25;9.52;;;5.38;;
74677;SDS011;67324;56.326;43.982;2023-02-17T04:38:51;7.05;;;5.65;;
74677;SDS011;67324;56.326;43.982;2023-02-17T04:41:17;8.40;;;5.60;;
74677;SDS011;67324;56.326;43.982;2023-02-17T04:43:43;8.70;;;5.90;;
74677;SDS011;67324;56.326;43.982;2023-02-17T04:46:09;8.45;;;6.00;;
74677;SDS011;67324;56.326;43.982;2023-02-17T04:48:36;8.68;;;5.85;;
74677;SDS011;67324;56.326;43.982;2023-02-17T04:51:02;8.27;;;5.82;;
74677;SDS011;67324;56.326;43.982;2023-02-17T04:53:29;8.75;;;5.68;;
74677;SDS011;67324;56.326;43.982;2023-02-17T04:55:54;7.78;;;5.53;;
74677;SDS011;67324;56.326;43.982;2023-02-17T04:58:20;8.75;;;6.32;;
74677;SDS011;67324;56.326;43.982;2023-02-17T05:00:47;8.77;;;6.05;;
74677;SDS011;67324;56.326;43.982;2023-02-17T05:03:14;8.68;;;6.68;;
74677;SDS011;67324;56.326;43.982;2023-02-17T05:05:41;7.45;;;5.90;;
74677;SDS011;67324;56.326;43.982;2023-02-17T05:08:07;8.63;;;6.18;;
74677;SDS011;67324;56.326;43.982;2023-02-17T05:10:32;8.65;;;5.78;;
74677;SDS011;67324;56.326;43.982;2023-02-17T05:12:58;8.43;;;6.15;;
74677;SDS011;67324;56.326;43.982;2023-02-17T05:15:24;8.27;;;5.75;;
74677;SDS011;67324;56.326;43.982;2023-02-17T05:17:50;8.35;;;5.75;;
74677;SDS011;67324;56.326;43.982;2023-02-17T05:20:16;7.47;;;5.40;;
74677;SDS011;67324;56.326;43.982;2023-02-17T05:22:42;9.15;;;6.00;;
74677;SDS011;67324;56.326;43.982;2023-02-17T05:25:08;8.82;;;6.00;;
74677;SDS011;67324;56.326;43.982;2023-02-17T05:27:33;7.82;;;5.80;;
74677;SDS011;67324;56.326;43.982;2023-02-17T05:29:59;7.63;;;5.75;;
74677;SDS011;67324;56.326;43.982;2023-02-17T05:32:25;8.90;;;6.15;;
74677;SDS011;67324;56.326;43.982;2023-02-17T05:34:51;6.78;;;5.38;;
74677;SDS011;67324;56.326;43.982;2023-02-17T05:37:17;9.80;;;6.03;;
74677;SDS011;67324;56.326;43.982;2023-02-17T05:39:43;8.80;;;5.68;;
74677;SDS011;67324;56.326;43.982;2023-02-17T05:42:09;9.57;;;5.93;;
74677;SDS011;67324;56.326;43.982;2023-02-17T05:44:35;7.57;;;5.63;;
74677;SDS011;67324;56.326;43.982;2023-02-17T05:47:01;8.68;;;6.28;;
74677;SDS011;67324;56.326;43.982;2023-02-17T05:49:27;8.02;;;5.95;;
74677;SDS011;67324;56.326;43.982;2023-02-17T05:51:53;9.23;;;6.38;;
74677;SDS011;67324;56.326;43.982;2023-02-17T05:54:19;8.57;;;5.95;;
74677;SDS011;67324;56.326;43.982;2023-02-17T05:56:45;8.40;;;5.72;;
74677;SDS011;67324;56.326;43.982;2023-02-17T05:59:10;9.57;;;6.30;;
74677;SDS011;67324;56.326;43.982;2023-02-17T06:01:36;7.03;;;5.30;;
74677;SDS011;67324;56.326;43.982;2023-02-17T06:04:02;7.57;;;5.93;;
74677;SDS011;67324;56.326;43.982;2023-02-17T06:06:29;7.82;;;6.00;;
74677;SDS011;67324;56.326;43.982;2023-02-17T06:08:54;8.25;;;5.65;;
74677;SDS011;67324;56.326;43.982;2023-02-17T06:11:20;8.57;;;6.00;;
74677;SDS011;67324;56.326;43.982;2023-02-17T06:13:46;8.15;;;5.80;;
74677;SDS011;67324;56.326;43.982;2023-02-17T06:16:12;8.50;;;5.68;;
74677;SDS011;67324;56.326;43.982;2023-02-17T06:18:38;7.63;;;5.70;;
74677;SDS011;67324;56.326;43.982;2023-02-17T06:21:04;7.82;;;5.53;;
74677;SDS011;67324;56.326;43.982;2023-02-17T06:23:30;9.38;;;5.95;;
74677;SDS011;67324;56.326;43.982;2023-02-17T06:25:56;8.98;;;5.95;;
74677;SDS011;67324;56.326;43.982;2023-02-17T06:28:22;8.48;;;5.97;;
74677;SDS011;67324;56.326;43.982;2023-02-17T06:30:48;7.72;;;5.72;;
74677;SDS011;67324;56.326;43.982;2023-02-17T06:33:14;8.02;;;5.90;;
74677;SDS011;67324;56.326;43.982;2023-02-17T06:35:40;8.13;;;5.82;;
74677;SDS011;67324;56.326;43.982;2023-02-17T06:38:05;9.45;;;6.07;;
74677;SDS011;67324;56.326;43.982;2023-02-17T06:40:32;7.25;;;5.90;;
74677;SDS011;67324;56.326;43.982;2023-02-17T06:42:57;8.02;;;5.95;;
74677;SDS011;67324;56.326;43.982;2023-02-17T06:45:23;7.68;;;5.80;;
74677;SDS011;67324;56.326;43.982;2023-02-17T06:47:49;6.95;;;5.57;;
74677;SDS011;67324;56.326;43.982;2023-02-17T06:50:15;7.50;;;5.78;;
74677;SDS011;67324;56.326;43.982;2023-02-17T06:52:41;7.13;;;5.82;;
74677;SDS011;67324;56.326;43.982;2023-02-17T06:55:07;7.25;;;5.80;;
74677;SDS011;67324;56.326;43.982;2023-02-17T06:57:33;7.82;;;5.80;;
74677;SDS011;67324;56.326;43.982;2023-02-17T06:59:59;8.57;;;5.80;;
74677;SDS011;67324;56.326;43.982;2023-02-17T07:02:24;9.65;;;6.47;;
74677;SDS011;67324;56.326;43.982;2023-02-17T07:04:51;8.20;;;6.25;;
74677;SDS011;67324;56.326;43.982;2023-02-17T07:07:17;8.02;;;5.75;;
74677;SDS011;67324;56.326;43.982;2023-02-17T07:09:43;8.48;;;6.45;;
74677;SDS011;67324;56.326;43.982;2023-02-17T07:12:08;8.30;;;6.05;;
74677;SDS011;67324;56.326;43.982;2023-02-17T07:14:34;7.68;;;5.95;;
74677;SDS011;67324;56.326;43.982;2023-02-17T07:17:00;8.85;;;5.88;;
74677;SDS011;67324;56.326;43.982;2023-02-17T07:19:27;8.70;;;6.00;;
74677;SDS011;67324;56.326;43.982;2023-02-17T07:21:52;8.02;;;5.47;;
74677;SDS011;67324;56.326;43.982;2023-02-17T07:24:18;7.55;;;5.68;;
74677;SDS011;67324;56.326;43.982;2023-02-17T07:26:44;7.60;;;5.85;;
74677;SDS011;67324;56.326;43.982;2023-02-17T07:29:10;8.10;;;5.93;;
74677;SDS011;67324;56.326;43.982;2023-02-17T07:31:36;8.07;;;6.00;;
74677;SDS011;67324;56.326;43.982;2023-02-17T07:34:02;9.25;;;6.22;;
74677;SDS011;67324;56.326;43.982;2023-02-17T07:36:29;8.95;;;6.38;;
74677;SDS011;67324;56.326;43.982;2023-02-17T07:38:54;8.05;;;6.00;;
74677;SDS011;67324;56.326;43.982;2023-02-17T07:41:22;8.82;;;6.05;;
74677;SDS011;67324;56.326;43.982;2023-02-17T07:43:52;7.35;;;5.97;;
74677;SDS011;67324;56.326;43.982;2023-02-17T07:46:20;8.75;;;6.15;;
74677;SDS011;67324;56.326;43.982;2023-02-17T07:49:05;7.15;;;5.65;;
74677;SDS011;67324;56.326;43.982;2023-02-17T07:51:31;10.27;;;6.88;;
74677;SDS011;67324;56.326;43.982;2023-02-17T07:53:57;10.27;;;6.60;;
74677;SDS011;67324;56.326;43.982;2023-02-17T07:56:41;8.25;;;6.28;;
74677;SDS011;67324;56.326;43.982;2023-02-17T07:59:08;8.73;;;6.32;;
74677;SDS011;67324;56.326;43.982;2023-02-17T08:01:35;9.48;;;6.22;;
74677;SDS011;67324;56.326;43.982;2023-02-17T08:04:01;9.73;;;6.40;;
74677;SDS011;67324;56.326;43.982;2023-02-17T08:06:46;8.50;;;6.45;;
74677;SDS011;67324;56.326;43.982;2023-02-17T08:09:12;8.00;;;6.57;;
74677;SDS011;67324;56.326;43.982;2023-02-17T08:11:56;8.32;;;6.00;;
74677;SDS011;67324;56.326;43.982;2023-02-17T08:14:40;9.13;;;6.68;;
74677;SDS011;67324;56.326;43.982;2023-02-17T08:17:06;8.32;;;6.22;;
74677;SDS011;67324;56.326;43.982;2023-02-17T08:19:32;9.52;;;6.65;;
74677;SDS011;67324;56.326;43.982;2023-02-17T08:21:58;8.30;;;6.18;;
74677;SDS011;67324;56.326;43.982;2023-02-17T08:24:24;9.10;;;6.55;;
74677;SDS011;67324;56.326;43.982;2023-02-17T08:26:51;9.82;;;6.57;;
74677;SDS011;67324;56.326;43.982;2023-02-17T08:29:17;9.23;;;6.15;;
74677;SDS011;67324;56.326;43.982;2023-02-17T08:31:44;8.23;;;6.18;;
74677;SDS011;67324;56.326;43.982;2023-02-17T08:34:11;8.48;;;6.05;;
74677;SDS011;67324;56.326;43.982;2023-02-17T08:36:56;8.23;;;6.35;;
74677;SDS011;67324;56.326;43.982;2023-02-17T08:39:22;7.93;;;6.00;;
74677;SDS011;67324;56.326;43.982;2023-02-17T08:41:48;8.00;;;6.10;;
74677;SDS011;67324;56.326;43.982;2023-02-17T08:44:16;9.75;;;6.57;;
74677;SDS011;67324;56.326;43.982;2023-02-17T08:47:02;7.55;;;5.78;;
74677;SDS011;67324;56.326;43.982;2023-02-17T08:49:29;7.97;;;6.38;;
74677;SDS011;67324;56.326;43.982;2023-02-17T08:51:57;7.43;;;6.22;;
74677;SDS011;67324;56.326;43.982;2023-02-17T08:54:23;8.75;;;6.40;;
74677;SDS011;67324;56.326;43.982;2023-02-17T08:57:08;8.70;;;5.97;;
74677;SDS011;67324;56.326;43.982;2023-02-17T08:59:34;8.82;;;6.10;;
74677;SDS011;67324;56.326;43.982;2023-02-17T09:01:59;10.65;;;6.32;;
74677;SDS011;67324;56.326;43.982;2023-02-17T09:04:25;7.82;;;6.30;;
74677;SDS011;67324;56.326;43.982;2023-02-17T09:06:52;7.70;;;5.78;;
74677;SDS011;67324;56.326;43.982;2023-02-17T09:09:22;8.45;;;5.97;;
74677;SDS011;67324;56.326;43.982;2023-02-17T09:11:51;8.35;;;5.88;;
74677;SDS011;67324;56.326;43.982;2023-02-17T09:14:19;8.50;;;6.45;;
74677;SDS011;67324;56.326;43.982;2023-02-17T09:16:49;7.85;;;6.25;;
74677;SDS011;67324;56.326;43.982;2023-02-17T09:19:16;8.55;;;5.95;;
74677;SDS011;67324;56.326;43.982;2023-02-17T09:21:42;8.10;;;5.97;;
74677;SDS011;67324;56.326;43.982;2023-02-17T09:24:08;7.38;;;5.93;;
74677;SDS011;67324;56.326;43.982;2023-02-17T09:26:52;9.40;;;6.20;;
74677;SDS011;67324;56.326;43.982;2023-02-17T09:29:17;8.18;;;6.18;;
74677;SDS011;67324;56.326;43.982;2023-02-17T09:31:45;8.30;;;5.80;;
74677;SDS011;67324;56.326;43.982;2023-02-17T09:34:10;8.90;;;5.97;;
74677;SDS011;67324;56.326;43.982;2023-02-17T09:36:38;8.75;;;6.07;;
74677;SDS011;67324;56.326;43.982;2023-02-17T09:39:05;8.05;;;5.95;;
74677;SDS011;67324;56.326;43.982;2023-02-17T09:46:51;9.38;;;5.90;;
74677;SDS011;67324;56.326;43.982;2023-02-17T09:49:20;7.97;;;5.70;;
74677;SDS011;67324;56.326;43.982;2023-02-17T09:54:33;7.72;;;6.25;;
74677;SDS011;67324;56.326;43.982;2023-02-17T09:57:18;7.22;;;5.57;;
74677;SDS011;67324;56.326;43.982;2023-02-17T09:59:51;8.93;;;6.22;;
74677;SDS011;67324;56.326;43.982;2023-02-17T10:02:23;9.93;;;5.95;;
74677;SDS011;67324;56.326;43.982;2023-02-17T10:04:56;7.35;;;6.05;;
74677;SDS011;67324;56.326;43.982;2023-02-17T10:07:31;8.98;;;6.13;;
74677;SDS011;67324;56.326;43.982;2023-02-17T10:10:05;7.68;;;5.75;;
74677;SDS011;67324;56.326;43.982;2023-02-17T10:12:37;7.68;;;5.90;;
74677;SDS011;67324;56.326;43.982;2023-02-17T10:15:29;8.85;;;5.93;;
74677;SDS011;67324;56.326;43.982;2023-02-17T10:18:04;7.82;;;5.72;;
74677;SDS011;67324;56.326;43.982;2023-02-17T10:23:24;7.95;;;5.75;;
74677;SDS011;67324;56.326;43.982;2023-02-17T10:29:00;7.60;;;5.90;;
74677;SDS011;67324;56.326;43.982;2023-02-17T10:36:58;7.55;;;5.50;;
74677;SDS011;67324;56.326;43.982;2023-02-17T10:42:07;7.57;;;5.70;;
74677;SDS011;67324;56.326;43.982;2023-02-17T10:44:40;7.15;;;5.43;;
74677;SDS011;67324;56.326;43.982;2023-02-17T10:47:25;7.45;;;5.50;;
74677;SDS011;67324;56.326;43.982;2023-02-17T10:49:52;9.00;;;6.00;;
74677;SDS011;67324;56.326;43.982;2023-02-17T10:52:19;9.77;;;5.85;;
74677;SDS011;67324;56.326;43.982;2023-02-17T10:55:17;9.38;;;6.38;;
74677;SDS011;67324;56.326;43.982;2023-02-17T10:57:44;8.13;;;5.47;;
74677;SDS011;67324;56.326;43.982;2023-02-17T11:00:15;7.18;;;5.60;;
74677;SDS011;67324;56.326;43.982;2023-02-17T11:02:43;8.20;;;5.60;;
74677;SDS011;67324;56.326;43.982;2023-02-17T11:05:21;7.55;;;5.90;;
74677;SDS011;67324;56.326;43.982;2023-02-17T11:07:47;7.88;;;5.85;;
74677;SDS011;67324;56.326;43.982;2023-02-17T11:10:24;6.85;;;5.50;;
74677;SDS011;67324;56.326;43.982;2023-02-17T11:12:53;7.82;;;5.38;;
74677;SDS011;67324;56.326;43.982;2023-02-17T11:15:23;7.43;;;5.60;;
74677;SDS011;67324;56.326;43.982;2023-02-17T11:17:52;9.02;;;6.05;;
74677;SDS011;67324;56.326;43.982;2023-02-17T11:22:45;7.32;;;5.53;;
74677;SDS011;67324;56.326;43.982;2023-02-17T11:25:23;9.13;;;5.60;;
74677;SDS011;67324;56.326;43.982;2023-02-17T11:27:54;7.93;;;5.40;;
74677;SDS011;67324;56.326;43.982;2023-02-17T11:30:47;7.85;;;5.60;;
74677;SDS011;67324;56.326;43.982;2023-02-17T11:33:35;8.45;;;5.65;;
74677;SDS011;67324;56.326;43.982;2023-02-17T11:36:05;8.02;;;5.75;;
74677;SDS011;67324;56.326;43.982;2023-02-17T11:38:39;7.32;;;5.28;;
74677;SDS011;67324;56.326;43.982;2023-02-17T11:41:08;7.70;;;5.90;;
74677;SDS011;67324;56.326;43.982;2023-02-17T11:43:35;6.55;;;5.32;;
74677;SDS011;67324;56.326;43.982;2023-02-17T11:52:14;7.53;;;5.90;;
74677;SDS011;67324;56.326;43.982;2023-02-17T11:57:40;8.77;;;5.63;;
74677;SDS011;67324;56.326;43.982;2023-02-17T12:28:54;7.32;;;5.40;;
74677;SDS011;67324;56.326;43.982;2023-02-17T12:34:28;6.70;;;5.53;;
74677;SDS011;67324;56.326;43.982;2023-02-17T12:37:01;7.30;;;5.72;;
74677;SDS011;67324;56.326;43.982;2023-02-17T12:39:32;7.25;;;5.57;;
74677;SDS011;67324;56.326;43.982;2023-02-17T12:42:25;8.95;;;5.90;;
74677;SDS011;67324;56.326;43.982;2023-02-17T12:45:15;7.97;;;5.82;;
74677;SDS011;67324;56.326;43.982;2023-02-17T12:48:01;7.15;;;5.40;;
74677;SDS011;67324;56.326;43.982;2023-02-17T12:53:01;8.95;;;5.45;;
74677;SDS011;67324;56.326;43.982;2023-02-17T12:55:35;6.95;;;5.05;;
74677;SDS011;67324;56.326;43.982;2023-02-17T12:58:15;7.70;;;5.60;;
74677;SDS011;67324;56.326;43.982;2023-02-17T13:01:07;28.05;;;8.23;;
74677;SDS011;67324;56.326;43.982;2023-02-17T13:03:37;10.23;;;5.80;;
74677;SDS011;67324;56.326;43.982;2023-02-17T13:06:08;7.53;;;5.28;;
74677;SDS011;67324;56.326;43.982;2023-02-17T13:08:57;9.65;;;5.30;;
74677;SDS011;67324;56.326;43.982;2023-02-17T13:11:45;8.40;;;5.40;;
74677;SDS011;67324;56.326;43.982;2023-02-17T13:17:28;7.93;;;5.72;;
74677;SDS011;67324;56.326;43.982;2023-02-17T13:20:24;7.35;;;5.30;;
74677;SDS011;67324;56.326;43.982;2023-02-17T13:23:02;7.70;;;5.20;;
74677;SDS011;67324;56.326;43.982;2023-02-17T13:25:31;8.05;;;5.82;;
74677;SDS011;67324;56.326;43.982;2023-02-17T13:28:00;7.53;;;5.45;;
74677;SDS011;67324;56.326;43.982;2023-02-17T13:30:40;8.65;;;5.78;;
74677;SDS011;67324;56.326;43.982;2023-02-17T13:35:47;6.85;;;5.60;;
74677;SDS011;67324;56.326;43.982;2023-02-17T13:38:24;8.13;;;5.85;;
74677;SDS011;67324;56.326;43.982;2023-02-17T13:40:58;7.90;;;5.43;;
74677;SDS011;67324;56.326;43.982;2023-02-17T13:43:26;7.47;;;5.50;;
74677;SDS011;67324;56.326;43.982;2023-02-17T13:45:58;9.00;;;5.95;;
74677;SDS011;67324;56.326;43.982;2023-02-17T13:48:28;7.32;;;5.40;;
74677;SDS011;67324;56.326;43.982;2023-02-17T13:51:00;8.50;;;5.78;;
74677;SDS011;67324;56.326;43.982;2023-02-17T13:53:35;6.88;;;5.43;;
74677;SDS011;67324;56.326;43.982;2023-02-17T13:56:07;7.25;;;5.57;;
74677;SDS011;67324;56.326;43.982;2023-02-17T13:58:36;8.68;;;5.40;;
74677;SDS011;67324;56.326;43.982;2023-02-17T14:01:04;8.77;;;5.80;;
74677;SDS011;67324;56.326;43.982;2023-02-17T14:03:52;6.65;;;5.40;;
74677;SDS011;67324;56.326;43.982;2023-02-17T14:06:41;7.65;;;5.78;;
74677;SDS011;67324;56.326;43.982;2023-02-17T14:11:52;7.18;;;5.60;;
74677;SDS011;67324;56.326;43.982;2023-02-17T14:14:23;7.97;;;5.65;;
74677;SDS011;67324;56.326;43.982;2023-02-17T14:19:28;8.93;;;6.10;;
74677;SDS011;67324;56.326;43.982;2023-02-17T14:22:05;8.75;;;6.18;;
74677;SDS011;67324;56.326;43.982;2023-02-17T14:24:35;9.48;;;6.03;;
74677;SDS011;67324;56.326;43.982;2023-02-17T14:27:03;11.18;;;5.88;;
74677;SDS011;67324;56.326;43.982;2023-02-17T14:29:51;10.27;;;5.40;;
74677;SDS011;67324;56.326;43.982;2023-02-17T14:32:30;9.52;;;5.90;;
74677;SDS011;67324;56.326;43.982;2023-02-17T14:37:37;8.93;;;5.63;;
74677;SDS011;67324;56.326;43.982;2023-02-17T14:40:05;9.43;;;5.72;;
74677;SDS011;67324;56.326;43.982;2023-02-17T14:42:38;8.25;;;5.80;;
74677;SDS011;67324;56.326;43.982;2023-02-17T14:45:04;7.53;;;5.63;;
74677;SDS011;67324;56.326;43.982;2023-02-17T14:47:31;7.57;;;5.45;;
74677;SDS011;67324;56.326;43.982;2023-02-17T14:49:56;6.68;;;5.03;;
74677;SDS011;67324;56.326;43.982;2023-02-17T14:52:23;7.20;;;5.63;;
74677;SDS011;67324;56.326;43.982;2023-02-17T14:54:49;6.88;;;5.95;;
74677;SDS011;67324;56.326;43.982;2023-02-17T14:57:16;7.63;;;5.70;;
74677;SDS011;67324;56.326;43.982;2023-02-17T14:59:44;7.60;;;5.40;;
74677;SDS011;67324;56.326;43.982;2023-02-17T15:02:13;7.57;;;5.35;;
74677;SDS011;67324;56.326;43.982;2023-02-17T15:04:44;6.50;;;5.00;;
74677;SDS011;67324;56.326;43.982;2023-02-17T15:07:13;9.25;;;5.97;;
74677;SDS011;67324;56.326;43.982;2023-02-17T15:09:44;8.70;;;5.85;;
74677;SDS011;67324;56.326;43.982;2023-02-17T15:12:13;6.75;;;5.20;;
74677;SDS011;67324;56.326;43.982;2023-02-17T15:14:53;8.25;;;5.53;;
74677;SDS011;67324;56.326;43.982;2023-02-17T15:17:19;7.72;;;5.47;;
74677;SDS011;67324;56.326;43.982;2023-02-17T15:19:45;5.93;;;4.88;;
74677;SDS011;67324;56.326;43.982;2023-02-17T15:22:11;7.20;;;5.18;;
74677;SDS011;67324;56.326;43.982;2023-02-17T15:24:38;8.45;;;5.70;;
74677;SDS011;67324;56.326;43.982;2023-02-17T15:27:04;8.63;;;5.68;;
74677;SDS011;67324;56.326;43.982;2023-02-17T15:29:31;7.88;;;5.60;;
74677;SDS011;67324;56.326;43.982;2023-02-17T15:31:58;8.85;;;5.25;;
74677;SDS011;67324;56.326;43.982;2023-02-17T15:34:30;8.57;;;5.63;;
74677;SDS011;67324;56.326;43.982;2023-02-17T15:36:57;8.70;;;5.40;;
74677;SDS011;67324;56.326;43.982;2023-02-17T15:39:24;7.60;;;5.22;;
74677;SDS011;67324;56.326;43.982;2023-02-17T15:41:50;8.00;;;5.85;;
74677;SDS011;67324;56.326;43.982;2023-02-17T15:44:20;8.20;;;6.15;;
74677;SDS011;67324;56.326;43.982;2023-02-17T15:46:49;6.70;;;5.32;;
74677;SDS011;67324;56.326;43.982;2023-02-17T15:49:35;7.78;;;5.38;;
74677;SDS011;67324;56.326;43.982;2023-02-17T15:52:01;7.15;;;5.30;;
74677;SDS011;67324;56.326;43.982;2023-02-17T15:54:42;7.07;;;5.53;;
74677;SDS011;67324;56.326;43.982;2023-02-17T15:57:22;6.60;;;5.38;;
74677;SDS011;67324;56.326;43.982;2023-02-17T15:59:49;7.85;;;5.80;;
74677;SDS011;67324;56.326;43.982;2023-02-17T16:02:20;7.93;;;5.78;;
74677;SDS011;67324;56.326;43.982;2023-02-17T16:04:48;7.70;;;5.57;;
74677;SDS011;67324;56.326;43.982;2023-02-17T16:07:13;6.35;;;5.60;;
74677;SDS011;67324;56.326;43.982;2023-02-17T16:09:40;8.57;;;6.10;;
74677;SDS011;67324;56.326;43.982;2023-02-17T16:12:16;8.18;;;5.75;;
74677;SDS011;67324;56.326;43.982;2023-02-17T16:14:52;7.18;;;5.10;;
74677;SDS011;67324;56.326;43.982;2023-02-17T16:17:18;8.85;;;5.82;;
74677;SDS011;67324;56.326;43.982;2023-02-17T16:19:44;7.60;;;5.38;;
74677;SDS011;67324;56.326;43.982;2023-02-17T16:22:10;7.57;;;5.35;;
74677;SDS011;67324;56.326;43.982;2023-02-17T16:24:36;6.20;;;5.07;;
74677;SDS011;67324;56.326;43.982;2023-02-17T16:27:03;6.57;;;5.07;;
74677;SDS011;67324;56.326;43.982;2023-02-17T16:29:32;7.18;;;5.30;;
74677;SDS011;67324;56.326;43.982;2023-02-17T16:31:58;6.28;;;5.00;;
74677;SDS011;67324;56.326;43.982;2023-02-17T16:34:24;7.00;;;4.32;;
74677;SDS011;67324;56.326;43.982;2023-02-17T16:36:51;7.22;;;4.88;;
74677;SDS011;67324;56.326;43.982;2023-02-17T16:39:21;6.68;;;4.82;;